Time;durP1;ratioP1;P1;durP2;ratioP2;P2;SDS_P1;SDS_P2;PMS_P1;PMS_P2;Temp;Humidity;BMP_temperature;BMP_pressure;BME280_temperature;BME280_humidity;BME280_pressure;Samples;Min_cycle;Max_cycle;Signal;HPM_P1;HPM_P2
2021/08/14 00:01:46;;;;;;;7.22;3.85;;;;;;;14.35;84.02;101372.91;1730258;81;20990;-41
2021/08/14 00:04:12;;;;;;;7.62;4.00;;;;;;;14.32;84.38;101374.28;1730239;81;21190;-40
2021/08/14 00:06:39;;;;;;;11.73;4.40;;;;;;;14.30;84.50;101372.16;1726666;81;21064;-41
2021/08/14 00:09:05;;;;;;;10.63;4.42;;;;;;;14.24;84.55;101374.84;1731360;81;21591;-41
2021/08/14 00:11:33;;;;;;;5.03;3.58;;;;;;;14.19;84.66;101371.05;1719420;81;20936;-40
2021/08/14 00:14:00;;;;;;;10.80;3.62;;;;;;;14.15;84.97;101372.43;1719328;81;20951;-40
2021/08/14 00:16:27;;;;;;;11.22;4.55;;;;;;;14.12;85.06;101375.09;1718923;81;21469;-42
2021/08/14 00:18:56;;;;;;;8.68;4.33;;;;;;;14.08;85.34;101388.17;1725709;81;20971;-42
2021/08/14 00:21:22;;;;;;;9.20;4.92;;;;;;;14.04;85.44;101393.03;1694594;83;21039;-39
2021/08/14 00:23:50;;;;;;;7.62;3.92;;;;;;;14.01;85.71;101390.45;1681271;84;20927;-40
2021/08/14 00:26:17;;;;;;;5.35;4.10;;;;;;;14.00;85.75;101390.03;1679733;84;20984;-39
2021/08/14 00:28:45;;;;;;;7.00;4.10;;;;;;;13.98;85.90;101385.30;1700477;83;20979;-40
2021/08/14 00:31:11;;;;;;;8.90;4.50;;;;;;;13.96;86.07;101391.44;1695267;83;21029;-40
2021/08/14 00:33:38;;;;;;;9.95;4.47;;;;;;;13.93;86.24;101389.31;1660019;84;21016;-40
2021/08/14 00:36:04;;;;;;;9.98;4.28;;;;;;;13.93;86.34;101393.64;1668251;84;20957;-39
2021/08/14 00:38:31;;;;;;;6.45;4.05;;;;;;;13.92;86.76;101394.10;1686342;83;21348;-41
2021/08/14 00:40:57;;;;;;;7.28;4.03;;;;;;;13.93;87.06;101394.94;1692429;83;21061;-40
2021/08/14 00:43:23;;;;;;;7.22;4.72;;;;;;;13.90;87.33;101397.60;1671651;84;21019;-40
2021/08/14 00:45:50;;;;;;;8.15;4.10;;;;;;;13.86;87.42;101394.64;1686339;83;21023;-40
2021/08/14 00:48:17;;;;;;;6.33;4.35;;;;;;;13.82;87.55;101395.59;1689603;83;21004;-40
2021/08/14 00:50:46;;;;;;;12.68;3.80;;;;;;;13.77;87.77;101390.02;1690600;83;21005;-40
2021/08/14 00:53:12;;;;;;;8.28;4.20;;;;;;;13.75;88.00;101389.63;1689819;83;21608;-40
2021/08/14 00:55:42;;;;;;;7.35;4.28;;;;;;;13.70;88.20;101388.84;1689982;84;20952;-40
2021/08/14 00:58:09;;;;;;;6.10;4.17;;;;;;;13.65;88.64;101387.18;1688563;83;22046;-38
2021/08/14 01:00:37;;;;;;;7.67;4.47;;;;;;;13.62;88.81;101391.56;1665424;84;21020;-41
2021/08/14 01:03:04;;;;;;;5.75;4.45;;;;;;;13.58;88.92;101392.05;1673850;84;22247;-39
2021/08/14 01:05:30;;;;;;;8.68;4.30;;;;;;;13.57;89.11;101394.69;1676482;84;21048;-39
2021/08/14 01:07:57;;;;;;;11.70;4.50;;;;;;;13.54;89.33;101388.23;1678650;85;20964;-40
2021/08/14 01:10:24;;;;;;;6.80;4.30;;;;;;;13.52;89.53;101395.21;1647167;85;20973;-40
2021/08/14 01:12:53;;;;;;;9.35;4.08;;;;;;;13.50;89.69;101393.92;1689941;83;21005;-40
2021/08/14 01:15:21;;;;;;;12.98;4.17;;;;;;;13.49;89.64;101394.80;1676887;83;20990;-40
2021/08/14 01:17:49;;;;;;;11.30;4.92;;;;;;;13.46;89.74;101394.40;1624772;86;22566;-39
2021/08/14 01:20:17;;;;;;;6.12;4.20;;;;;;;13.44;89.90;101394.86;1666450;84;21048;-40
2021/08/14 01:22:46;;;;;;;6.28;4.20;;;;;;;13.43;89.99;101393.61;1664832;84;21051;-40
2021/08/14 01:25:13;;;;;;;5.50;4.30;;;;;;;13.42;90.09;101392.70;1727859;82;20945;-40
2021/08/14 01:27:39;;;;;;;6.20;4.35;;;;;;;13.41;90.08;101388.84;1712915;82;20979;-40
2021/08/14 01:30:09;;;;;;;5.35;4.12;;;;;;;13.39;90.14;101394.48;1696469;82;21603;-40
2021/08/14 01:32:37;;;;;;;12.88;3.92;;;;;;;13.36;90.05;101392.80;1713011;82;21038;-41
2021/08/14 01:35:05;;;;;;;6.92;4.35;;;;;;;13.32;90.15;101389.83;1661647;85;21047;-39
2021/08/14 01:37:33;;;;;;;5.65;4.10;;;;;;;13.31;90.19;101395.92;1714643;82;21019;-40
2021/08/14 01:40:00;;;;;;;6.85;4.50;;;;;;;13.28;90.25;101390.31;1707598;82;20914;-40
2021/08/14 01:42:27;;;;;;;13.78;5.10;;;;;;;13.28;90.28;101390.77;1693047;82;21319;-39
2021/08/14 01:44:53;;;;;;;14.10;5.20;;;;;;;13.25;90.49;101392.08;1697811;84;20976;-39
2021/08/14 01:47:20;;;;;;;6.42;4.55;;;;;;;13.22;90.52;101390.41;1704255;82;20987;-40
2021/08/14 01:49:48;;;;;;;7.65;4.95;;;;;;;13.20;90.51;101390.41;1703377;82;20961;-40
2021/08/14 01:52:17;;;;;;;11.40;4.60;;;;;;;13.17;90.60;101386.56;1703584;82;20936;-41
2021/08/14 01:54:47;;;;;;;6.70;4.58;;;;;;;13.16;90.63;101385.30;1705502;82;21039;-40
2021/08/14 01:57:16;;;;;;;8.23;4.83;;;;;;;13.11;90.72;101374.97;1694801;84;20995;-40
2021/08/14 01:59:42;;;;;;;9.95;4.90;;;;;;;13.09;90.92;101380.62;1706802;82;20999;-40
2021/08/14 02:02:08;;;;;;;6.53;4.50;;;;;;;13.07;91.06;101378.49;1687651;84;21031;-39
2021/08/14 02:04:35;;;;;;;8.23;4.72;;;;;;;13.05;91.20;101383.70;1705766;82;21498;-39
2021/08/14 02:07:03;;;;;;;7.15;5.15;;;;;;;13.04;91.42;101386.34;1690010;84;20944;-40
2021/08/14 02:09:31;;;;;;;6.22;4.72;;;;;;;13.03;91.54;101387.22;1708969;82;20928;-40
2021/08/14 02:11:58;;;;;;;6.72;4.30;;;;;;;13.01;91.67;101378.55;1689612;84;20964;-40
2021/08/14 02:14:26;;;;;;;6.40;4.37;;;;;;;13.01;91.70;101381.16;1709466;82;21564;-39
2021/08/14 02:16:54;;;;;;;7.80;4.75;;;;;;;12.98;91.81;101386.40;1720052;82;20983;-40
2021/08/14 02:19:22;;;;;;;5.65;4.28;;;;;;;12.97;91.91;101380.78;1720654;81;21766;-38
2021/08/14 02:21:49;;;;;;;6.17;4.42;;;;;;;12.95;92.06;101383.42;1728849;81;21019;-41
2021/08/14 02:24:15;;;;;;;7.72;4.50;;;;;;;12.92;92.16;101383.01;1720272;81;20971;-41
2021/08/14 02:26:43;;;;;;;7.53;4.62;;;;;;;12.90;92.31;101383.47;1722904;81;20904;-39
2021/08/14 02:29:09;;;;;;;5.53;4.30;;;;;;;12.90;92.42;101386.07;1720666;80;21461;-41
2021/08/14 02:31:36;;;;;;;6.67;4.90;;;;;;;12.89;92.47;101389.55;1730005;81;21994;-40
2021/08/14 02:34:02;;;;;;;9.93;4.37;;;;;;;12.89;92.67;101390.01;1720484;81;20970;-39
2021/08/14 02:36:30;;;;;;;10.00;5.05;;;;;;;12.89;92.77;101387.41;1730845;81;20977;-40
2021/08/14 02:38:58;;;;;;;7.92;4.28;;;;;;;12.88;92.82;101390.43;1722881;82;20924;-39
2021/08/14 02:41:24;;;;;;;5.37;4.47;;;;;;;12.90;92.93;101391.72;1721061;81;20964;-41
2021/08/14 02:43:51;;;;;;;7.62;5.08;;;;;;;12.90;92.92;101389.97;1717368;82;21189;-41
2021/08/14 02:46:18;;;;;;;9.43;4.47;;;;;;;12.90;92.93;101389.13;1721890;81;21098;-41
2021/08/14 02:48:46;;;;;;;10.00;5.25;;;;;;;12.89;92.99;101391.30;1723478;81;21589;-39
2021/08/14 02:51:13;;;;;;;7.53;4.75;;;;;;;12.89;93.01;101392.60;1718122;82;20935;-39
2021/08/14 02:53:42;;;;;;;12.07;5.30;;;;;;;12.87;93.10;101395.63;1695726;82;21359;-40
2021/08/14 02:56:08;;;;;;;9.85;5.15;;;;;;;12.84;93.17;101395.25;1719065;82;21335;-40
2021/08/14 02:58:35;;;;;;;9.33;4.80;;;;;;;12.85;93.29;101394.38;1717121;82;20967;-40
2021/08/14 03:01:01;;;;;;;11.90;4.65;;;;;;;12.86;93.33;101389.59;1734372;81;20943;-38
2021/08/14 03:03:29;;;;;;;7.70;4.97;;;;;;;12.87;93.40;101386.12;1730299;81;20970;-39
2021/08/14 03:05:56;;;;;;;7.37;4.92;;;;;;;12.89;93.46;101390.84;1732354;81;20931;-42
2021/08/14 03:08:24;;;;;;;10.50;4.60;;;;;;;12.90;93.48;101392.56;1740958;82;20972;-39
2021/08/14 03:10:51;;;;;;;5.45;4.40;;;;;;;12.92;93.43;101384.77;1740171;81;21190;-40
2021/08/14 03:13:17;;;;;;;8.23;4.45;;;;;;;12.93;93.47;101392.52;1740833;81;20986;-42
2021/08/14 03:15:44;;;;;;;7.95;4.62;;;;;;;12.96;93.61;101388.16;1721561;81;22175;-41
2021/08/14 03:18:12;;;;;;;7.65;5.03;;;;;;;12.99;93.63;101387.69;1728118;81;21488;-40
2021/08/14 03:20:40;;;;;;;8.08;4.42;;;;;;;13.02;93.66;101388.09;1726409;81;21236;-40
2021/08/14 03:23:07;;;;;;;13.48;4.40;;;;;;;13.07;93.57;101383.69;1732777;82;20936;-41
2021/08/14 03:25:35;;;;;;;5.00;4.47;;;;;;;13.11;93.58;101378.86;1721229;82;22172;-39
2021/08/14 03:28:01;;;;;;;11.88;4.65;;;;;;;13.16;93.53;101380.95;1712334;82;21063;-41
2021/08/14 03:30:27;;;;;;;9.80;4.62;;;;;;;13.22;93.54;101381.31;1683799;84;21061;-40
2021/08/14 03:32:54;;;;;;;5.42;4.72;;;;;;;13.27;93.49;101378.65;1699067;84;21265;-40
2021/08/14 03:35:22;;;;;;;7.58;4.20;;;;;;;13.32;93.48;101388.08;1725146;82;20925;-41
2021/08/14 03:37:48;;;;;;;6.15;4.30;;;;;;;13.42;93.37;101390.09;1720169;82;20984;-40
2021/08/14 03:40:14;;;;;;;6.85;4.30;;;;;;;13.53;93.19;101386.52;1709690;82;20976;-41
2021/08/14 03:42:43;;;;;;;10.85;4.83;;;;;;;13.61;93.10;101388.55;1735210;82;20972;-41
2021/08/14 03:45:10;;;;;;;12.20;4.58;;;;;;;13.71;92.89;101388.80;1704974;81;21253;-42
2021/08/14 03:47:38;;;;;;;8.30;4.62;;;;;;;13.83;92.64;101384.29;1711309;82;21367;-41
2021/08/14 03:50:09;;;;;;;5.08;4.42;;;;;;;14.00;92.23;101388.73;1685324;84;20933;-40
2021/08/14 03:52:35;;;;;;;6.25;4.40;;;;;;;14.17;91.81;101387.15;1640974;85;22796;-42
2021/08/14 03:55:06;;;;;;;8.98;3.98;;;;;;;14.36;91.18;101395.46;1668085;84;21024;-41
2021/08/14 03:57:33;;;;;;;8.90;4.30;;;;;;;14.56;90.59;101390.31;1677546;83;21165;-41
2021/08/14 04:00:00;;;;;;;7.08;4.10;;;;;;;14.77;89.95;101398.15;1678875;83;21023;-42
2021/08/14 04:02:26;;;;;;;7.53;4.78;;;;;;;15.01;89.44;101394.60;1673086;84;20987;-39
2021/08/14 04:04:52;;;;;;;7.42;3.95;;;;;;;15.28;88.85;101399.21;1719573;82;20933;-41
2021/08/14 04:07:20;;;;;;;4.35;3.87;;;;;;;15.56;87.58;101395.98;1717432;81;22009;-39
2021/08/14 04:09:47;;;;;;;4.28;3.72;;;;;;;15.87;86.57;101396.50;1682381;84;21107;-40
2021/08/14 04:12:13;;;;;;;4.05;3.75;;;;;;;16.15;85.22;101398.42;1710567;82;21628;-41
2021/08/14 04:14:40;;;;;;;5.83;3.80;;;;;;;16.40;84.18;101402.98;1710149;82;21518;-41
2021/08/14 04:17:06;;;;;;;4.75;3.67;;;;;;;16.62;83.04;101405.83;1707202;82;21086;-39
2021/08/14 04:19:33;;;;;;;4.83;3.37;;;;;;;16.80;81.99;101403.16;1719852;82;20924;-41
2021/08/14 04:22:00;;;;;;;4.55;3.40;;;;;;;17.05;80.66;101408.95;1711190;81;21125;-40
2021/08/14 04:24:28;;;;;;;4.83;4.15;;;;;;;17.22;79.58;101407.98;1727531;82;21028;-40
2021/08/14 04:26:55;;;;;;;3.70;3.40;;;;;;;17.39;78.56;101405.30;1705348;82;20940;-40
2021/08/14 04:29:22;;;;;;;6.25;3.47;;;;;;;17.56;77.66;101408.67;1709848;82;21275;-41
2021/08/14 04:31:48;;;;;;;6.30;3.90;;;;;;;17.75;77.08;101402.37;1713529;82;21027;-40
2021/08/14 04:34:14;;;;;;;9.43;3.55;;;;;;;17.98;76.41;101404.66;1689860;83;21123;-42
2021/08/14 04:36:41;;;;;;;7.58;3.42;;;;;;;18.19;75.14;101408.78;1676499;84;20995;-42
2021/08/14 04:39:08;;;;;;;9.93;3.70;;;;;;;18.32;74.51;101410.08;1671569;84;21052;-40
2021/08/14 09:15:46;;;;;;;6.00;2.92;;;;;;;27.01;43.86;101330.55;1795438;78;22165;-42
2021/08/14 09:18:16;;;;;;;4.92;2.72;;;;;;;27.11;42.89;101338.17;1768589;79;20940;-42
2021/08/14 09:20:51;;;;;;;6.33;3.25;;;;;;;27.41;41.06;101332.86;1765562;80;21135;-40
2021/08/14 09:23:18;;;;;;;2.60;2.40;;;;;;;27.60;40.01;101325.66;1759685;79;20941;-42
2021/08/14 09:25:53;;;;;;;4.10;2.30;;;;;;;27.44;39.49;101332.62;1756023;80;21486;-41
2021/08/14 09:28:39;;;;;;;4.03;2.40;;;;;;;27.45;39.85;101332.98;1771897;79;20940;-42
2021/08/14 09:31:06;;;;;;;2.90;2.45;;;;;;;27.21;41.78;101343.19;1775700;80;21025;-41
2021/08/14 09:33:36;;;;;;;4.70;2.52;;;;;;;26.96;42.31;101338.38;1771059;80;21137;-42
2021/08/14 09:36:09;;;;;;;4.25;2.40;;;;;;;27.07;41.85;101335.39;1754848;79;22237;-43
2021/08/14 09:38:48;;;;;;;3.75;2.65;;;;;;;27.45;40.97;101330.33;1740546;80;21457;-41
2021/08/14 09:41:18;;;;;;;2.60;2.40;;;;;;;27.83;40.97;101327.02;1768278;80;21064;-40
2021/08/14 09:43:48;;;;;;;2.92;2.42;;;;;;;28.18;39.54;101318.57;1763448;79;21049;-40
2021/08/14 09:46:15;;;;;;;4.05;2.50;;;;;;;28.12;39.07;101327.84;1740818;80;21069;-41
2021/08/14 09:48:42;;;;;;;3.80;2.02;;;;;;;27.70;38.63;101324.94;1754827;79;21563;-41
2021/08/14 09:51:31;;;;;;;2.55;2.25;;;;;;;27.34;40.85;101324.97;1711721;83;21577;-42
2021/08/14 09:54:02;;;;;;;4.10;2.67;;;;;;;27.47;40.03;101320.42;1701435;82;21557;-41
2021/08/14 09:56:37;;;;;;;4.47;2.30;;;;;;;27.57;38.78;101329.03;1731764;81;21026;-42
2021/08/14 09:59:05;;;;;;;8.05;2.60;;;;;;;27.64;39.79;101320.47;1701028;82;21091;-42
2021/08/14 10:01:35;;;;;;;3.52;2.47;;;;;;;27.83;40.33;101312.39;1712438;81;21027;-42
2021/08/14 10:04:03;;;;;;;4.35;2.83;;;;;;;28.19;38.98;101307.79;1710893;81;20980;-42
2021/08/14 10:06:31;;;;;;;3.65;2.92;;;;;;;28.52;37.10;101303.34;1737823;80;20981;-42
2021/08/14 10:08:57;;;;;;;3.33;2.00;;;;;;;28.91;36.39;101289.55;1714500;82;22153;-41
2021/08/14 10:11:24;;;;;;;5.95;2.22;;;;;;;28.80;37.34;101301.59;1736892;81;21168;-41
2021/08/14 10:13:52;;;;;;;6.00;2.52;;;;;;;28.37;37.45;101308.11;1721503;81;20963;-41
2021/08/14 10:16:20;;;;;;;2.87;2.33;;;;;;;28.07;37.47;101304.27;1714287;81;21006;-41
2021/08/14 10:18:49;;;;;;;3.45;2.37;;;;;;;27.94;36.91;101292.42;1725720;81;20956;-41
2021/08/14 10:21:17;;;;;;;3.35;2.60;;;;;;;28.04;37.82;101290.34;1716974;81;21050;-40
2021/08/14 10:23:45;;;;;;;3.40;2.90;;;;;;;28.24;37.43;101294.95;1713355;81;21140;-40
2021/08/14 10:26:16;;;;;;;3.67;2.50;;;;;;;28.45;36.62;101286.20;1726730;81;20999;-40
2021/08/14 10:28:51;;;;;;;4.15;2.90;;;;;;;28.38;37.36;101281.85;1738738;80;20966;-40
2021/08/14 10:31:35;;;;;;;3.98;2.37;;;;;;;28.36;37.74;101283.80;1717428;82;20993;-41
2021/08/14 10:34:16;;;;;;;2.90;2.62;;;;;;;28.51;36.83;101283.52;1716684;82;20975;-42
2021/08/14 10:36:46;;;;;;;12.18;10.98;;;;;;;28.62;37.21;101282.14;1716468;82;21576;-41
2021/08/14 10:39:33;;;;;;;10.13;3.10;;;;;;;28.62;39.24;101279.48;1707092;82;21674;-42
2021/08/14 10:42:03;;;;;;;5.90;4.62;;;;;;;28.78;37.45;101276.88;1710227;82;21569;-41
2021/08/14 10:44:47;;;;;;;7.28;5.87;;;;;;;28.33;37.74;101273.91;1679691;83;22459;-41
2021/08/14 10:47:41;;;;;;;4.95;2.47;;;;;;;28.07;39.56;101273.66;1724286;81;20907;-41
2021/08/14 10:50:06;;;;;;;4.92;3.10;;;;;;;28.36;37.62;101277.64;1720366;81;21552;-41
2021/08/14 10:52:34;;;;;;;5.05;2.52;;;;;;;28.63;37.82;101273.17;1685654;82;21095;-41
2021/08/14 10:55:03;;;;;;;4.65;1.98;;;;;;;28.77;37.14;101278.69;1727728;81;20966;-41
2021/08/14 10:57:45;;;;;;;4.00;2.08;;;;;;;28.90;37.17;101265.22;1725510;81;21169;-41
2021/08/14 11:00:19;;;;;;;10.00;2.40;;;;;;;29.20;36.09;101274.75;1687038;82;21103;-42
2021/08/14 11:03:04;;;;;;;5.10;1.85;;;;;;;29.27;34.50;101257.75;1751403;80;21130;-41
2021/08/14 11:05:31;;;;;;;4.12;2.45;;;;;;;29.18;35.07;101255.38;1747581;81;21002;-42
2021/08/14 11:08:02;;;;;;;2.77;2.27;;;;;;;29.24;36.68;101263.70;1752814;80;21024;-41
2021/08/14 11:10:40;;;;;;;8.00;2.35;;;;;;;29.29;35.20;101262.46;1759958;79;21019;-41
2021/08/14 11:13:35;;;;;;;6.30;2.87;;;;;;;29.41;33.82;101256.09;1701759;82;21005;-41
2021/08/14 11:16:01;;;;;;;4.65;2.17;;;;;;;29.36;36.73;101249.81;1698237;82;21116;-41
2021/08/14 11:18:55;;;;;;;5.28;2.12;;;;;;;29.45;34.15;101244.68;1735950;79;21027;-41
2021/08/14 11:21:44;;;;;;;3.25;2.40;;;;;;;29.40;35.17;101255.70;1694879;83;20981;-41
2021/08/14 11:24:10;;;;;;;5.03;2.20;;;;;;;29.40;33.28;101246.38;1742419;79;21032;-40
2021/08/14 11:26:38;;;;;;;2.35;2.05;;;;;;;29.32;32.78;101244.87;1743249;80;20971;-40
2021/08/14 11:29:06;;;;;;;2.65;1.72;;;;;;;29.14;33.15;101244.13;1746819;79;21111;-40
2021/08/14 11:31:33;;;;;;;10.03;1.90;;;;;;;29.09;33.98;101242.35;1756430;79;21087;-40
2021/08/14 11:34:12;;;;;;;3.50;2.20;;;;;;;29.11;34.40;101230.60;1765338;79;21031;-40
2021/08/14 11:36:41;;;;;;;24.82;2.65;;;;;;;29.27;33.06;101225.27;1765903;80;20956;-40
2021/08/14 11:39:08;;;;;;;2.75;1.80;;;;;;;29.32;35.81;101234.20;1754191;79;21034;-41
2021/08/14 11:41:35;;;;;;;2.22;2.12;;;;;;;29.44;35.40;101229.19;1765433;79;21255;-40
2021/08/14 11:44:05;;;;;;;3.67;1.72;;;;;;;29.72;34.14;101224.09;1745356;80;20952;-40
2021/08/14 11:46:32;;;;;;;3.72;2.37;;;;;;;29.94;33.75;101226.20;1759098;79;21044;-40
2021/08/14 11:49:03;;;;;;;4.42;1.92;;;;;;;30.08;32.81;101224.48;1755997;79;20984;-40
2021/08/14 11:51:30;;;;;;;2.87;2.20;;;;;;;30.22;32.09;101217.89;1757520;79;20937;-41
2021/08/14 11:54:09;;;;;;;2.70;2.50;;;;;;;30.36;31.05;101217.14;1735301;79;21111;-40
2021/08/14 11:56:36;;;;;;;4.53;2.40;;;;;;;30.20;31.06;101215.86;1756451;79;20983;-40
2021/08/14 11:59:02;;;;;;;2.42;1.90;;;;;;;30.18;32.83;101212.48;1749366;79;21019;-41
2021/08/14 12:01:29;;;;;;;3.50;2.20;;;;;;;30.24;32.12;101214.59;1762950;79;20957;-42
2021/08/14 12:04:02;;;;;;;2.00;1.90;;;;;;;29.85;33.17;101219.85;1722810;81;20971;-41
2021/08/14 12:06:32;;;;;;;6.47;1.92;;;;;;;29.77;33.14;101221.86;1721222;81;21097;-42
2021/08/14 12:09:01;;;;;;;4.30;1.92;;;;;;;29.69;31.83;101216.37;1755104;80;21040;-42
2021/08/14 12:11:28;;;;;;;3.17;1.90;;;;;;;29.48;32.78;101207.09;1738154;79;21079;-42
2021/08/14 12:14:20;;;;;;;5.37;1.98;;;;;;;29.16;32.43;101207.53;1766903;79;21023;-42
2021/08/14 12:16:51;;;;;;;1.98;1.87;;;;;;;28.93;33.31;101197.53;1758446;80;20976;-41
2021/08/14 12:19:22;;;;;;;4.03;2.20;;;;;;;28.95;33.88;101209.76;1765449;80;21087;-41
2021/08/14 12:22:11;;;;;;;2.40;2.20;;;;;;;28.91;35.16;101198.16;1682829;83;21098;-42
2021/08/14 12:24:40;;;;;;;5.65;2.98;;;;;;;29.06;33.11;101190.66;1737882;80;21628;-41
2021/08/14 12:27:31;;;;;;;27.73;2.87;;;;;;;29.37;33.04;101186.66;1758496;79;21003;-41
2021/08/14 12:30:19;;;;;;;5.03;2.20;;;;;;;29.55;33.39;101194.89;1749003;80;21019;-41
2021/08/14 12:32:47;;;;;;;3.47;1.82;;;;;;;29.81;33.70;101196.59;1746815;80;21128;-40
2021/08/14 12:35:24;;;;;;;2.20;2.10;;;;;;;29.96;32.73;101191.70;1752431;79;21313;-41
2021/08/14 12:37:50;;;;;;;2.22;2.02;;;;;;;29.89;31.28;101189.25;1748852;80;20980;-42
2021/08/14 12:40:22;;;;;;;3.02;2.30;;;;;;;29.83;30.71;101189.30;1770940;80;22218;-42
2021/08/14 12:42:48;;;;;;;3.95;2.10;;;;;;;29.96;32.25;101189.04;1761663;79;21517;-42
2021/08/14 12:45:23;;;;;;;4.92;2.30;;;;;;;30.16;30.67;101185.58;1753165;80;21816;-41
2021/08/14 12:47:51;;;;;;;2.40;2.20;;;;;;;30.30;28.54;101182.50;1720659;81;21536;-42
2021/08/14 12:50:33;;;;;;;13.20;2.70;;;;;;;30.27;29.42;101177.92;1742903;79;21082;-42
2021/08/14 12:53:05;;;;;;;4.70;2.45;;;;;;;30.16;28.79;101181.09;1757345;80;22147;-42
2021/08/14 12:55:42;;;;;;;7.67;2.77;;;;;;;29.99;29.39;101171.92;1739889;80;21541;-42
2021/08/14 12:58:10;;;;;;;3.05;2.47;;;;;;;29.83;29.75;101170.62;1753936;80;21139;-42
2021/08/14 13:00:40;;;;;;;8.33;2.77;;;;;;;29.88;29.20;101165.36;1760413;80;21039;-41
2021/08/14 13:03:07;;;;;;;2.77;2.55;;;;;;;30.04;29.36;101158.17;1748671;80;21039;-42
2021/08/14 13:05:33;;;;;;;7.12;6.00;;;;;;;30.21;30.87;101159.33;1754335;79;21020;-42
2021/08/14 13:08:00;;;;;;;50.33;5.33;;;;;;;30.44;29.22;101167.88;1746606;80;21024;-42
2021/08/14 13:10:28;;;;;;;2.80;2.55;;;;;;;30.35;29.43;101153.55;1749388;80;20983;-41
2021/08/14 13:12:59;;;;;;;5.37;2.20;;;;;;;30.24;28.43;101160.38;1751037;80;20991;-41
2021/08/14 13:15:27;;;;;;;2.22;2.02;;;;;;;30.10;27.81;101153.64;1734027;81;21004;-41
2021/08/14 13:17:55;;;;;;;5.05;2.27;;;;;;;30.09;27.96;101157.29;1756862;80;21044;-41
2021/08/14 13:20:24;;;;;;;4.53;2.02;;;;;;;30.18;28.94;101151.58;1757299;80;21639;-41
2021/08/14 13:22:55;;;;;;;2.70;2.50;;;;;;;30.31;30.26;101149.48;1766473;80;20996;-40
2021/08/14 13:25:24;;;;;;;4.58;2.58;;;;;;;30.46;29.38;101150.39;1767235;80;20991;-40
2021/08/14 13:27:51;;;;;;;3.33;2.58;;;;;;;30.51;28.59;101151.63;1764339;80;21027;-41
2021/08/14 13:30:22;;;;;;;5.83;2.37;;;;;;;30.63;28.19;101147.00;1750069;80;20979;-41
2021/08/14 13:32:50;;;;;;;7.58;2.52;;;;;;;30.79;27.35;101152.25;1762571;80;22050;-42
2021/08/14 13:35:17;;;;;;;4.80;2.95;;;;;;;30.95;27.60;101147.16;1744172;81;21157;-42
2021/08/14 13:37:46;;;;;;;7.22;2.52;;;;;;;31.01;28.29;101150.22;1761583;80;21526;-40
2021/08/14 13:40:14;;;;;;;3.75;2.30;;;;;;;31.10;27.41;101145.32;1742101;80;21581;-40
2021/08/14 13:42:40;;;;;;;2.37;2.17;;;;;;;31.21;27.13;101138.50;1739986;80;20944;-40
2021/08/14 13:45:09;;;;;;;8.03;2.87;;;;;;;31.38;27.58;101138.68;1764923;80;21023;-41
2021/08/14 13:47:38;;;;;;;3.08;2.50;;;;;;;31.61;26.53;101142.28;1743977;80;21131;-40
2021/08/14 13:50:06;;;;;;;3.92;2.50;;;;;;;31.59;26.13;101137.58;1745856;80;21015;-42
2021/08/14 13:52:33;;;;;;;4.25;2.40;;;;;;;31.62;26.90;101130.59;1759634;80;21012;-41
2021/08/14 13:54:59;;;;;;;3.67;2.67;;;;;;;31.81;27.00;101133.17;1742960;81;21007;-41
2021/08/14 13:57:26;;;;;;;3.30;2.92;;;;;;;32.13;25.78;101134.11;1767928;80;20968;-41
2021/08/14 13:59:52;;;;;;;3.55;2.80;;;;;;;32.24;26.61;101124.52;1757320;80;21114;-41
2021/08/14 14:02:19;;;;;;;8.55;2.52;;;;;;;32.31;25.89;101126.91;1755370;80;21015;-40
2021/08/14 14:04:45;;;;;;;3.55;2.90;;;;;;;32.53;26.11;101130.11;1759735;80;21119;-41
2021/08/14 14:07:13;;;;;;;3.67;2.95;;;;;;;32.71;24.81;101119.83;1753156;80;21011;-41
2021/08/14 14:09:40;;;;;;;5.47;2.60;;;;;;;32.70;24.98;101118.14;1754147;80;20893;-41
2021/08/14 14:12:08;;;;;;;10.60;2.60;;;;;;;32.61;24.87;101114.09;1760636;80;22650;-41
2021/08/14 14:14:35;;;;;;;4.03;2.45;;;;;;;32.52;24.99;101121.73;1735460;80;21005;-41
2021/08/14 14:17:04;;;;;;;3.70;2.60;;;;;;;32.35;25.61;101118.94;1760594;80;20971;-41
2021/08/14 14:19:32;;;;;;;2.70;2.47;;;;;;;32.33;25.28;101120.93;1753878;80;20977;-41
2021/08/14 14:21:59;;;;;;;5.20;2.60;;;;;;;32.27;25.04;101119.34;1751631;80;20965;-40
2021/08/14 14:24:27;;;;;;;5.58;4.58;;;;;;;32.10;25.74;101125.40;1758942;80;21138;-41
2021/08/14 14:26:54;;;;;;;4.08;3.00;;;;;;;31.97;26.48;101120.95;1757945;81;21020;-40
2021/08/14 14:29:21;;;;;;;4.25;2.70;;;;;;;32.12;25.18;101121.25;1760463;80;20925;-40
2021/08/14 14:31:47;;;;;;;5.12;2.62;;;;;;;32.31;26.62;101122.89;1745862;81;20956;-40
2021/08/14 14:34:14;;;;;;;4.47;2.55;;;;;;;32.28;25.96;101117.86;1767838;80;21011;-40
2021/08/14 14:36:40;;;;;;;4.22;2.65;;;;;;;32.09;26.62;101117.03;1768506;80;21159;-40
2021/08/14 14:39:07;;;;;;;6.40;2.60;;;;;;;32.09;25.83;101111.67;1762436;80;21006;-40
2021/08/14 14:41:33;;;;;;;5.10;2.42;;;;;;;32.04;26.00;101107.29;1729570;80;20956;-41
2021/08/14 14:43:59;;;;;;;2.67;2.47;;;;;;;31.92;25.56;101110.70;1741509;80;20995;-41
2021/08/14 14:46:26;;;;;;;3.05;2.58;;;;;;;31.87;26.61;101105.45;1745046;80;20962;-40
2021/08/14 14:48:54;;;;;;;5.67;2.67;;;;;;;31.93;25.65;101103.49;1748138;80;21023;-40
2021/08/14 14:51:21;;;;;;;5.33;2.62;;;;;;;31.81;26.19;101105.08;1740845;80;21470;-40
2021/08/14 14:53:47;;;;;;;6.40;2.80;;;;;;;31.92;26.13;101105.83;1726104;80;20968;-40
2021/08/14 14:56:14;;;;;;;4.72;2.77;;;;;;;31.98;25.23;101103.90;1752457;80;21012;-40
2021/08/14 14:58:41;;;;;;;4.35;2.40;;;;;;;32.04;25.45;101105.95;1728457;80;21046;-40
2021/08/14 15:01:07;;;;;;;8.73;2.90;;;;;;;32.05;25.55;101109.45;1754784;80;21129;-40
2021/08/14 15:03:35;;;;;;;3.02;2.83;;;;;;;32.10;25.43;101102.65;1758329;80;20984;-40
2021/08/14 15:06:02;;;;;;;3.33;2.92;;;;;;;32.13;25.73;101101.99;1754389;80;21016;-41
2021/08/14 15:08:28;;;;;;;3.45;2.90;;;;;;;32.14;25.34;101099.17;1733877;80;20963;-41
2021/08/14 15:10:57;;;;;;;4.20;2.60;;;;;;;32.02;26.42;101107.94;1753347;80;20937;-39
2021/08/14 15:13:24;;;;;;;2.85;2.65;;;;;;;32.03;25.74;101105.61;1753673;80;21187;-40
2021/08/14 15:15:51;;;;;;;2.92;2.72;;;;;;;31.87;25.98;101111.66;1748592;80;20977;-40
2021/08/14 15:18:19;;;;;;;4.55;3.50;;;;;;;31.86;26.25;101109.98;1747315;80;20947;-40
2021/08/14 15:20:46;;;;;;;3.33;3.02;;;;;;;31.85;26.25;101114.13;1748627;80;20976;-40
2021/08/14 15:23:13;;;;;;;6.58;3.72;;;;;;;31.84;26.99;101111.11;1754668;80;20983;-40
2021/08/14 15:25:40;;;;;;;7.25;3.25;;;;;;;31.94;26.68;101111.86;1749272;80;21083;-40
2021/08/14 15:28:07;;;;;;;4.42;3.30;;;;;;;31.96;26.34;101109.91;1741750;80;21047;-40
2021/08/14 15:30:34;;;;;;;6.78;2.90;;;;;;;31.91;26.35;101112.17;1740046;80;21011;-41
2021/08/14 15:33:00;;;;;;;8.23;3.42;;;;;;;31.85;26.55;101108.78;1771909;80;21030;-40
2021/08/14 15:35:27;;;;;;;7.50;3.55;;;;;;;31.84;27.20;101114.64;1748460;80;21008;-41
2021/08/14 15:37:55;;;;;;;4.22;3.80;;;;;;;31.86;26.42;101107.30;1747328;80;21233;-41
2021/08/14 15:40:22;;;;;;;7.60;3.50;;;;;;;31.87;26.90;101110.80;1749394;80;21285;-41
2021/08/14 15:42:49;;;;;;;8.50;3.58;;;;;;;31.88;27.24;101115.16;1768171;79;21004;-40
2021/08/14 15:45:16;;;;;;;9.05;4.35;;;;;;;31.95;28.65;101118.41;1750838;80;21003;-42
2021/08/14 15:47:46;;;;;;;3.10;2.80;;;;;;;31.94;26.93;101111.37;1731077;80;21016;-41
2021/08/14 15:50:11;;;;;;;3.00;2.77;;;;;;;31.70;26.77;101111.11;1748433;80;21126;-41
2021/08/14 15:52:39;;;;;;;8.88;2.90;;;;;;;31.43;26.98;101116.84;1739646;80;21083;-41
2021/08/14 15:55:07;;;;;;;6.85;2.80;;;;;;;31.18;28.15;101112.00;1756126;80;21036;-41
2021/08/14 15:57:33;;;;;;;4.12;3.17;;;;;;;31.03;28.44;101114.33;1752889;80;20987;-41
2021/08/14 16:00:01;;;;;;;7.28;3.00;;;;;;;30.90;27.93;101115.17;1768508;80;21031;-41
2021/08/14 16:02:28;;;;;;;5.12;3.20;;;;;;;30.72;28.12;101108.42;1678087;82;21190;-41
2021/08/14 16:04:54;;;;;;;7.40;2.83;;;;;;;30.32;28.85;101109.79;1740753;80;20921;-41
2021/08/14 16:07:22;;;;;;;8.80;3.27;;;;;;;30.03;29.34;101121.33;1753889;80;21632;-41